Time;durP1;ratioP1;P1;durP2;ratioP2;P2;SDS_P1;SDS_P2;PMS_P1;PMS_P2;Temp;Humidity;BMP_temperature;BMP_pressure;BME280_temperature;BME280_humidity;BME280_pressure;Samples;Min_cycle;Max_cycle;Signal;HPM_P1;HPM_P2
2021/08/10 00:00:30;;;;;;;9.73;5.95;;;;;;;14.16;100.00;101062.97;4963925;28;20077;-73
2021/08/10 00:02:58;;;;;;;10.60;5.57;;;;;;;14.12;100.00;101058.84;4967793;28;20043;-71
2021/08/10 00:05:26;;;;;;;8.80;6.22;;;;;;;13.96;100.00;101059.94;4951634;28;20154;-72
2021/08/10 00:07:53;;;;;;;6.38;5.53;;;;;;;13.89;100.00;101056.88;4928682;29;20164;-73
2021/08/10 00:10:21;;;;;;;11.45;6.43;;;;;;;13.67;100.00;101054.78;4954875;28;20244;-72
2021/08/10 00:12:48;;;;;;;9.60;6.55;;;;;;;13.55;100.00;101059.03;4947206;28;20090;-72
2021/08/10 00:15:16;;;;;;;9.95;6.40;;;;;;;13.54;100.00;101059.16;4949641;28;20229;-72
2021/08/10 00:17:43;;;;;;;10.23;6.03;;;;;;;13.48;100.00;101057.75;4961719;28;20082;-72
2021/08/10 00:20:11;;;;;;;8.48;6.50;;;;;;;13.54;100.00;101052.06;4942653;29;20134;-73
2021/08/10 00:22:38;;;;;;;10.90;6.60;;;;;;;13.49;100.00;101056.81;4947102;28;20053;-72
2021/08/10 00:25:06;;;;;;;10.95;6.82;;;;;;;13.61;100.00;101063.13;4963368;28;20058;-71
2021/08/10 00:27:33;;;;;;;11.38;7.30;;;;;;;13.75;100.00;101062.22;4954468;28;20130;-71
2021/08/10 00:30:00;;;;;;;10.55;6.60;;;;;;;13.79;100.00;101055.78;4939654;28;20067;-72
2021/08/10 00:32:27;;;;;;;12.45;7.13;;;;;;;13.79;100.00;101061.91;4942113;28;20569;-72
2021/08/10 00:34:55;;;;;;;7.55;6.82;;;;;;;13.74;100.00;101052.59;4950404;28;20047;-71
2021/08/10 00:37:22;;;;;;;7.30;6.53;;;;;;;13.79;100.00;101058.44;4947684;28;20429;-71
2021/08/10 00:39:49;;;;;;;9.40;7.18;;;;;;;13.67;100.00;101058.25;4948177;28;20134;-72
2021/08/10 00:42:17;;;;;;;8.30;6.40;;;;;;;13.63;100.00;101061.22;4954068;28;20047;-71
2021/08/10 00:44:44;;;;;;;8.30;7.05;;;;;;;13.57;100.00;101062.47;4966523;28;20106;-72
2021/08/10 00:47:11;;;;;;;10.95;6.53;;;;;;;13.50;100.00;101060.31;4948898;28;20051;-71
2021/08/10 00:49:38;;;;;;;8.82;6.93;;;;;;;13.40;100.00;101060.03;4933439;29;20188;-73
2021/08/10 00:52:06;;;;;;;9.82;6.45;;;;;;;13.32;100.00;101072.91;4961216;28;20090;-72
2021/08/10 00:54:33;;;;;;;11.85;7.28;;;;;;;13.32;100.00;101064.97;4915767;29;20337;-72
2021/08/10 00:57:01;;;;;;;10.40;6.38;;;;;;;13.26;100.00;101068.84;4940136;29;20147;-74
2021/08/10 00:59:28;;;;;;;11.77;6.43;;;;;;;13.21;100.00;101070.06;4946959;28;20062;-74
2021/08/10 01:01:55;;;;;;;9.25;6.43;;;;;;;13.28;100.00;101063.47;4931213;29;20146;-71
2021/08/10 01:04:22;;;;;;;7.68;6.10;;;;;;;13.43;100.00;101063.34;4920122;28;20071;-72
2021/08/10 01:07:08;;;;;;;12.15;7.07;;;;;;;13.53;100.00;101062.75;4946635;28;20051;-75
2021/08/10 01:09:49;;;;;;;12.27;7.32;;;;;;;13.34;100.00;101063.09;4947267;28;20133;-70
2021/08/10 01:12:21;;;;;;;9.68;6.45;;;;;;;13.31;100.00;101061.47;4934432;29;20054;-70
2021/08/10 01:15:08;;;;;;;10.57;6.35;;;;;;;13.21;100.00;101060.34;4944781;28;20051;-71
2021/08/10 01:17:58;;;;;;;8.18;6.53;;;;;;;13.44;100.00;101053.63;4929172;28;20165;-71
2021/08/10 01:20:40;;;;;;;8.30;7.43;;;;;;;13.25;100.00;101061.03;4965601;28;20086;-70
2021/08/10 01:23:11;;;;;;;10.93;7.55;;;;;;;13.29;100.00;101057.25;4950173;28;20049;-73
2021/08/10 01:26:23;;;;;;;10.55;7.47;;;;;;;13.18;100.00;101056.06;4950271;28;20146;-73
2021/08/10 01:29:04;;;;;;;8.63;6.55;;;;;;;13.10;100.00;101058.38;4876050;29;20049;-72
2021/08/10 01:31:37;;;;;;;9.80;6.90;;;;;;;13.17;100.00;101057.03;4859373;29;20313;-73
2021/08/10 01:34:17;;;;;;;13.13;7.00;;;;;;;13.24;100.00;101057.53;4917111;29;20048;-74
2021/08/10 01:36:47;;;;;;;9.43;7.47;;;;;;;13.15;100.00;101052.81;4918518;29;20426;-73
2021/08/10 01:39:14;;;;;;;8.70;6.38;;;;;;;13.25;100.00;101053.09;4926395;28;20580;-72
2021/08/10 01:41:42;;;;;;;9.55;6.95;;;;;;;13.30;100.00;101043.06;4933542;29;20138;-72
2021/08/10 01:44:10;;;;;;;9.73;7.10;;;;;;;13.31;100.00;101053.53;4944660;28;20425;-73
2021/08/10 01:46:38;;;;;;;10.38;6.63;;;;;;;13.39;100.00;101045.97;4961226;28;20066;-71
2021/08/10 01:49:06;;;;;;;13.80;7.15;;;;;;;13.31;100.00;101047.41;4912415;28;20051;-73
2021/08/10 01:51:34;;;;;;;8.00;6.10;;;;;;;13.18;100.00;101048.13;4928739;29;20057;-74
2021/08/10 01:54:04;;;;;;;11.05;7.10;;;;;;;13.14;100.00;101044.00;4946297;28;20043;-73
2021/08/10 01:56:31;;;;;;;9.18;6.32;;;;;;;13.06;100.00;101054.22;4960828;28;20134;-74
2021/08/10 01:59:00;;;;;;;8.30;6.70;;;;;;;13.00;100.00;101053.75;4914223;29;20071;-73
2021/08/10 02:01:29;;;;;;;9.70;6.85;;;;;;;13.10;100.00;101045.16;4947115;28;20484;-72
2021/08/10 02:03:57;;;;;;;8.63;6.57;;;;;;;13.12;100.00;101050.34;4929596;28;20057;-72
2021/08/10 02:06:26;;;;;;;9.98;6.80;;;;;;;13.03;100.00;101049.13;4954663;28;20154;-72
2021/08/10 02:08:56;;;;;;;15.25;8.40;;;;;;;13.04;100.00;101048.16;4946176;28;20047;-74
2021/08/10 02:11:27;;;;;;;8.75;6.63;;;;;;;13.12;100.00;101048.53;4958707;28;20142;-74
2021/08/10 02:13:56;;;;;;;11.35;7.03;;;;;;;13.07;100.00;101058.56;4926729;28;20066;-73
2021/08/10 02:16:24;;;;;;;7.28;5.80;;;;;;;13.04;100.00;101061.38;4945938;28;20081;-72
2021/08/10 02:18:52;;;;;;;10.45;6.90;;;;;;;13.02;100.00;101058.00;4943836;28;20429;-73
2021/08/10 02:21:30;;;;;;;8.57;6.10;;;;;;;12.99;100.00;101063.47;4950383;28;20138;-72
2021/08/10 02:24:04;;;;;;;10.07;6.60;;;;;;;13.01;100.00;101055.44;4912816;29;20057;-70
2021/08/10 02:26:38;;;;;;;9.70;6.45;;;;;;;13.01;100.00;101068.66;4953332;28;20154;-71
2021/08/10 02:29:05;;;;;;;7.72;6.53;;;;;;;12.97;100.00;101067.13;4961827;28;20134;-71
2021/08/10 02:31:33;;;;;;;10.93;6.32;;;;;;;13.00;100.00;101065.16;4928841;29;20126;-72
2021/08/10 02:34:00;;;;;;;10.55;7.28;;;;;;;12.97;100.00;101067.13;4945787;28;20205;-72
2021/08/10 02:36:29;;;;;;;7.93;6.60;;;;;;;12.99;100.00;101071.38;4932570;29;20071;-73
2021/08/10 02:39:02;;;;;;;12.55;7.45;;;;;;;13.08;100.00;101057.59;4942101;28;20537;-73
2021/08/10 02:41:29;;;;;;;15.10;7.65;;;;;;;13.15;100.00;101055.44;4948253;28;20071;-71
2021/08/10 02:43:57;;;;;;;9.48;7.20;;;;;;;13.16;100.00;101054.50;4937522;28;20047;-73
2021/08/10 02:46:24;;;;;;;10.07;7.10;;;;;;;13.13;100.00;101071.38;4955617;28;20067;-73
2021/08/10 02:48:51;;;;;;;8.20;5.47;;;;;;;13.27;100.00;101057.31;4944164;28;20075;-72
2021/08/10 02:51:18;;;;;;;11.80;6.38;;;;;;;13.51;100.00;101059.34;4936117;29;20094;-73
2021/08/10 02:53:46;;;;;;;7.95;5.60;;;;;;;13.65;100.00;101049.59;4928064;29;20605;-72
2021/08/10 02:56:22;;;;;;;14.25;6.85;;;;;;;13.42;100.00;101050.22;4950277;28;20138;-73
2021/08/10 02:59:00;;;;;;;13.30;6.57;;;;;;;13.36;100.00;101054.09;4947155;28;20589;-73
2021/08/10 03:01:32;;;;;;;10.30;6.55;;;;;;;13.23;100.00;101052.31;4944168;28;20110;-73
2021/08/10 03:04:00;;;;;;;9.55;6.10;;;;;;;13.42;100.00;101050.22;4958498;28;20532;-72
2021/08/10 03:06:32;;;;;;;10.25;5.85;;;;;;;13.29;100.00;101059.91;4966882;28;20133;-71
2021/08/10 03:08:59;;;;;;;9.45;6.55;;;;;;;13.17;100.00;101049.09;4948828;28;20209;-71
2021/08/10 03:11:29;;;;;;;11.75;6.45;;;;;;;13.02;100.00;101052.72;4949587;29;20167;-71
2021/08/10 03:13:58;;;;;;;9.90;6.20;;;;;;;12.88;100.00;101056.22;4967100;28;20134;-70
2021/08/10 03:16:26;;;;;;;11.45;6.60;;;;;;;12.89;100.00;101057.06;4948259;28;20058;-71
2021/08/10 03:18:54;;;;;;;9.65;6.57;;;;;;;13.10;100.00;101053.09;4934583;28;20138;-71
2021/08/10 03:21:22;;;;;;;12.07;8.07;;;;;;;13.13;100.00;101044.94;4933547;29;20916;-71
2021/08/10 03:23:52;;;;;;;12.15;7.22;;;;;;;13.09;100.00;101054.00;4935729;29;20054;-73
2021/08/10 03:26:21;;;;;;;9.68;6.63;;;;;;;13.01;100.00;101056.28;4930739;29;20073;-73
2021/08/10 03:28:50;;;;;;;11.82;7.47;;;;;;;12.88;100.00;101058.00;4933798;29;20494;-73
2021/08/10 03:31:17;;;;;;;9.85;6.43;;;;;;;12.99;100.00;101052.91;4954761;29;20070;-73
2021/08/10 03:33:45;;;;;;;13.95;7.20;;;;;;;12.86;100.00;101057.25;4968063;28;20138;-73
2021/08/10 03:36:13;;;;;;;11.73;7.20;;;;;;;12.76;100.00;101056.97;4942242;28;20150;-72
2021/08/10 03:38:40;;;;;;;7.45;6.63;;;;;;;12.74;100.00;101055.34;4946050;28;20147;-72
2021/08/10 03:41:09;;;;;;;10.43;6.93;;;;;;;12.89;100.00;101044.69;4966731;28;20043;-72
2021/08/10 03:46:06;;;;;;;9.98;7.57;;;;;;;12.82;100.00;101043.34;5032082;28;20105;-80
2021/08/10 03:48:37;;;;;;;12.70;8.10;;;;;;;12.78;100.00;101044.50;5019384;28;20533;-80
2021/08/10 03:51:05;;;;;;;9.85;7.80;;;;;;;12.82;100.00;101040.72;5009014;28;20065;-80
2021/08/10 03:53:34;;;;;;;9.85;7.13;;;;;;;12.85;100.00;101035.25;5002336;28;20077;-81
2021/08/10 03:56:02;;;;;;;8.00;7.05;;;;;;;12.93;100.00;101030.34;5001479;28;20053;-80
2021/08/10 03:58:32;;;;;;;10.35;6.95;;;;;;;12.86;100.00;101038.75;5022242;28;20134;-78
2021/08/10 04:01:00;;;;;;;9.77;6.50;;;;;;;12.83;100.00;101044.19;5002857;28;20430;-77
2021/08/10 04:03:30;;;;;;;12.27;7.47;;;;;;;12.83;100.00;101047.72;4982937;28;20526;-80
2021/08/10 04:05:59;;;;;;;10.38;7.00;;;;;;;12.82;100.00;101037.22;5015471;28;20050;-79
2021/08/10 04:08:27;;;;;;;14.23;9.40;;;;;;;12.92;100.00;101030.41;4996555;28;20157;-79
2021/08/10 04:10:54;;;;;;;10.30;8.40;;;;;;;12.93;100.00;101038.28;5032231;28;20049;-80
2021/08/10 04:13:22;;;;;;;13.90;8.40;;;;;;;13.01;100.00;101036.94;5012446;28;20053;-78
2021/08/10 04:15:51;;;;;;;12.00;7.40;;;;;;;13.03;100.00;101033.25;5011364;28;20046;-79
2021/08/10 04:18:24;;;;;;;11.88;7.03;;;;;;;13.06;100.00;101040.16;5005562;28;20049;-80
2021/08/10 04:20:52;;;;;;;11.57;7.25;;;;;;;13.15;100.00;101036.94;5003805;28;20074;-83
2021/08/10 04:23:21;;;;;;;8.27;5.68;;;;;;;13.35;100.00;101035.69;5001318;28;20062;-80
2021/08/10 04:25:48;;;;;;;11.02;5.55;;;;;;;13.55;100.00;101037.03;4965756;28;20453;-83
2021/08/10 04:28:16;;;;;;;11.98;7.35;;;;;;;13.73;100.00;101033.19;5027937;28;20026;-82
2021/08/10 04:30:46;;;;;;;9.85;5.90;;;;;;;14.00;100.00;101041.09;5017228;28;20135;-83
2021/08/10 04:33:13;;;;;;;11.35;5.22;;;;;;;13.99;100.00;101031.47;4996582;28;20088;-85
2021/08/10 04:35:40;;;;;;;7.20;5.03;;;;;;;14.01;100.00;101032.25;5031184;28;20045;-81
2021/08/10 04:38:08;;;;;;;7.53;5.60;;;;;;;14.03;100.00;101035.63;5018221;28;20046;-81
2021/08/10 04:40:35;;;;;;;7.78;4.88;;;;;;;14.27;100.00;101034.91;5025026;28;20053;-81
2021/08/10 04:43:03;;;;;;;8.05;5.05;;;;;;;14.99;100.00;101036.09;4983653;28;20046;-81
2021/08/10 04:45:30;;;;;;;7.57;4.10;;;;;;;15.83;100.00;101037.97;5023139;28;20054;-81
2021/08/10 04:47:57;;;;;;;5.82;3.17;;;;;;;16.55;100.00;101032.50;5014971;28;20099;-80
2021/08/10 04:50:24;;;;;;;6.28;3.88;;;;;;;18.16;100.00;101023.03;5005838;28;20070;-81
2021/08/10 04:52:51;;;;;;;6.30;3.55;;;;;;;18.82;87.30;101025.44;5021293;28;20053;-81
2021/08/10 04:55:20;;;;;;;5.95;3.70;;;;;;;19.82;80.69;101025.38;5018370;28;20080;-79
2021/08/10 04:57:47;;;;;;;9.45;3.15;;;;;;;20.30;73.59;101023.66;5009000;28;20061;-79
2021/08/10 05:00:14;;;;;;;4.75;2.97;;;;;;;20.29;71.25;101030.81;5014004;28;20033;-79
2021/08/10 05:02:41;;;;;;;7.25;3.15;;;;;;;20.88;68.67;101029.69;4999891;28;20064;-81
2021/08/10 05:05:09;;;;;;;5.35;2.97;;;;;;;21.49;65.54;101026.44;5025075;28;20112;-80
2021/08/10 05:07:36;;;;;;;4.78;2.33;;;;;;;21.68;65.01;101017.41;5003076;28;20034;-81
2021/08/10 05:10:04;;;;;;;4.05;2.85;;;;;;;23.03;60.58;101016.22;4998148;28;20042;-81
2021/08/10 05:12:34;;;;;;;5.35;2.58;;;;;;;23.56;57.38;101023.09;4993657;28;20977;-78
2021/08/10 05:15:01;;;;;;;8.55;2.70;;;;;;;23.78;55.76;101019.78;5027159;28;20026;-82
2021/08/10 05:17:28;;;;;;;5.82;2.95;;;;;;;23.92;54.67;101021.81;5013715;28;20046;-81
2021/08/10 05:19:56;;;;;;;4.45;2.78;;;;;;;24.40;52.77;101019.28;5025660;28;20018;-79
2021/08/10 05:22:24;;;;;;;5.07;2.83;;;;;;;24.56;52.88;101021.94;4991785;28;20056;-81
2021/08/10 05:24:52;;;;;;;6.75;3.00;;;;;;;25.40;50.23;101014.22;5022983;28;20069;-82
2021/08/10 05:27:19;;;;;;;3.95;2.38;;;;;;;25.90;47.90;101010.19;4992873;28;20076;-81
2021/08/10 05:29:47;;;;;;;4.57;3.05;;;;;;;26.05;47.29;101010.22;5002659;28;20033;-81
2021/08/10 05:32:15;;;;;;;12.00;2.80;;;;;;;26.33;46.00;101014.00;4994028;28;20100;-80
2021/08/10 05:34:42;;;;;;;6.90;3.17;;;;;;;27.01;45.16;101007.50;5006362;28;20042;-82
2021/08/10 05:37:09;;;;;;;5.78;2.80;;;;;;;24.85;49.60;101007.88;5014759;28;20054;-82
2021/08/10 05:39:38;;;;;;;5.50;2.28;;;;;;;26.74;46.22;101000.91;5030931;28;20172;-79
2021/08/10 05:42:06;;;;;;;9.23;2.90;;;;;;;27.45;44.00;101008.47;4976409;28;20057;-82
2021/08/10 05:44:34;;;;;;;7.20;3.60;;;;;;;27.98;42.63;101007.16;4990695;28;20056;-80
2021/08/10 05:47:01;;;;;;;6.25;2.58;;;;;;;27.47;42.60;101003.72;4971755;28;20045;-79
2021/08/10 05:49:28;;;;;;;8.07;2.78;;;;;;;27.55;42.56;101022.50;5018460;28;20522;-81
2021/08/10 05:51:56;;;;;;;6.50;2.60;;;;;;;27.28;43.21;101018.66;4985556;28;20115;-81
2021/08/10 05:54:24;;;;;;;4.38;2.50;;;;;;;27.98;41.88;101014.44;5024592;28;20058;-81
2021/08/10 05:56:51;;;;;;;4.38;2.70;;;;;;;28.09;41.67;101003.06;4994584;28;20100;-82
2021/08/10 05:59:18;;;;;;;5.78;2.40;;;;;;;28.50;40.44;101013.16;5025242;28;20064;-82
2021/08/10 06:01:45;;;;;;;6.05;2.90;;;;;;;28.72;39.86;101011.22;5007686;28;20077;-79
2021/08/10 06:04:13;;;;;;;5.30;2.55;;;;;;;29.79;37.65;101001.63;5009289;28;20050;-80
2021/08/10 06:06:40;;;;;;;7.68;3.00;;;;;;;30.51;36.21;100998.03;5025066;28;20065;-80
2021/08/10 06:09:08;;;;;;;5.53;3.10;;;;;;;30.23;36.39;100993.72;5027068;28;20560;-80
2021/08/10 06:11:35;;;;;;;4.00;2.67;;;;;;;30.99;35.22;100993.13;5025061;28;20034;-80
2021/08/10 06:14:04;;;;;;;4.80;2.65;;;;;;;31.27;34.41;100987.34;5012464;28;20219;-80
2021/08/10 06:16:31;;;;;;;5.30;2.85;;;;;;;30.95;34.73;100988.31;5027061;28;20050;-79
2021/08/10 06:18:59;;;;;;;6.07;2.70;;;;;;;31.04;35.40;100992.47;5024328;28;20045;-83
2021/08/10 06:21:26;;;;;;;8.07;3.30;;;;;;;32.12;32.70;100984.25;5025416;28;20053;-84
2021/08/10 06:23:54;;;;;;;3.42;2.42;;;;;;;31.48;33.58;100994.34;5007720;28;20071;-83
2021/08/10 06:26:21;;;;;;;4.75;2.80;;;;;;;31.77;33.27;101003.75;4990425;28;20120;-82
2021/08/10 06:28:49;;;;;;;3.88;2.70;;;;;;;31.01;35.26;101003.75;5006168;28;20029;-81
2021/08/10 06:31:16;;;;;;;4.50;2.90;;;;;;;31.24;33.82;100998.63;5020961;28;20050;-81
2021/08/10 06:33:44;;;;;;;4.88;2.95;;;;;;;31.30;34.20;101001.56;5029812;28;20094;-81
2021/08/10 06:36:11;;;;;;;7.35;3.20;;;;;;;31.45;34.66;100991.22;5014214;28;20073;-81
2021/08/10 06:38:38;;;;;;;7.63;3.00;;;;;;;31.64;33.95;100986.69;5012805;28;20058;-81
2021/08/10 06:41:05;;;;;;;6.00;2.97;;;;;;;30.63;35.37;100999.06;5033544;28;20635;-84
2021/08/10 06:43:33;;;;;;;5.78;2.85;;;;;;;30.95;35.76;101000.03;5006267;28;20054;-84
2021/08/10 06:46:00;;;;;;;5.28;3.00;;;;;;;31.40;34.47;101002.75;5028245;28;20041;-84
2021/08/10 06:48:28;;;;;;;5.50;2.75;;;;;;;32.49;32.61;100993.31;5003342;28;20069;-83
2021/08/10 06:50:55;;;;;;;6.72;3.17;;;;;;;32.69;32.36;100992.25;5022586;28;20077;-83
2021/08/10 06:53:22;;;;;;;6.07;2.83;;;;;;;33.49;31.16;100981.19;4982523;28;20088;-81
2021/08/10 06:55:50;;;;;;;8.23;2.80;;;;;;;33.00;31.73;100983.91;5025166;28;20046;-81
2021/08/10 06:58:18;;;;;;;7.65;3.15;;;;;;;32.46;31.67;100980.13;4995750;28;20056;-83
2021/08/10 07:00:46;;;;;;;5.30;2.95;;;;;;;32.82;31.04;100975.75;5023405;28;20473;-85
2021/08/10 07:03:14;;;;;;;5.45;3.22;;;;;;;32.57;31.83;100978.56;5012390;28;20411;-85
2021/08/10 07:05:42;;;;;;;4.55;2.80;;;;;;;31.07;34.26;100975.69;5005772;28;20462;-81
2021/08/10 07:08:09;;;;;;;3.95;2.33;;;;;;;29.29;37.48;100974.78;5020591;28;20046;-83
2021/08/10 07:10:36;;;;;;;4.13;2.80;;;;;;;28.23;39.52;100977.78;5026939;28;20137;-83
2021/08/10 07:13:03;;;;;;;7.95;2.97;;;;;;;26.94;42.80;100982.28;5020140;28;20510;-83
2021/08/10 07:15:31;;;;;;;6.97;3.08;;;;;;;26.50;43.59;100985.00;4987459;28;20108;-82
2021/08/10 07:18:00;;;;;;;12.07;2.85;;;;;;;26.05;45.49;100985.94;5021385;28;20070;-83
2021/08/10 07:20:27;;;;;;;4.45;2.67;;;;;;;26.52;44.11;100982.94;4997847;28;20053;-84
2021/08/10 07:22:54;;;;;;;8.43;2.72;;;;;;;25.86;46.72;100971.94;5015307;28;20107;-83
2021/08/10 07:25:22;;;;;;;7.35;2.88;;;;;;;25.07;48.81;100959.63;5020454;28;20084;-81
2021/08/10 07:27:49;;;;;;;7.15;2.53;;;;;;;24.70;49.19;100972.75;5005038;28;20116;-83
2021/08/10 07:30:16;;;;;;;11.10;3.25;;;;;;;24.17;50.20;100971.50;5006362;28;20041;-84
2021/08/10 07:32:45;;;;;;;7.07;2.90;;;;;;;23.41;52.81;100971.81;5002554;28;20077;-82
2021/08/10 07:35:13;;;;;;;10.57;3.40;;;;;;;22.81;55.51;100977.31;5010855;28;20045;-82
2021/08/10 07:37:41;;;;;;;7.13;3.67;;;;;;;22.57;57.00;100983.44;5007743;28;20057;-83
2021/08/10 07:40:11;;;;;;;7.50;2.85;;;;;;;22.44;57.39;100991.91;5003108;28;20362;-85
2021/08/10 07:42:39;;;;;;;9.63;4.55;;;;;;;22.30;59.02;100998.69;5005420;28;20497;-83
2021/08/10 07:45:06;;;;;;;6.00;2.75;;;;;;;23.02;57.62;100988.53;4989802;28;20129;-81
2021/08/10 07:47:34;;;;;;;4.50;2.75;;;;;;;22.73;57.73;100999.59;5021510;28;20074;-82
2021/08/10 07:50:02;;;;;;;6.20;2.33;;;;;;;22.97;56.78;100994.38;5010385;28;20085;-84
2021/08/10 07:52:29;;;;;;;7.63;2.83;;;;;;;22.87;56.22;101000.81;5030282;22;20081;-78
2021/08/10 07:54:56;;;;;;;6.50;2.65;;;;;;;23.13;55.87;100992.75;5001337;28;20100;-78
2021/08/10 07:57:23;;;;;;;6.57;2.42;;;;;;;23.49;54.99;100999.53;4983282;28;20122;-79
2021/08/10 07:59:51;;;;;;;4.68;2.25;;;;;;;23.29;55.22;100992.78;5029347;28;20053;-79
2021/08/10 08:02:18;;;;;;;6.38;2.50;;;;;;;23.31;55.65;100987.25;4977355;28;20058;-80
2021/08/10 08:04:45;;;;;;;9.90;3.42;;;;;;;22.89;57.13;100985.41;5004443;28;20076;-80
2021/08/10 08:07:12;;;;;;;6.68;2.45;;;;;;;22.40;59.71;100980.63;4979687;28;20042;-80
2021/08/10 08:09:40;;;;;;;6.40;3.08;;;;;;;22.23;58.40;100979.69;5005451;28;20080;-80
2021/08/10 08:12:07;;;;;;;5.10;2.67;;;;;;;22.22;59.03;100978.00;4995178;28;20050;-79
2021/08/10 08:14:36;;;;;;;4.20;2.03;;;;;;;22.38;59.24;100971.06;4990393;28;20062;-80
2021/08/10 08:17:04;;;;;;;7.15;2.53;;;;;;;22.13;59.94;100970.06;4985468;28;20050;-79
2021/08/10 08:19:31;;;;;;;5.38;3.00;;;;;;;21.82;59.41;100966.94;4998026;28;20108;-80
2021/08/10 08:21:58;;;;;;;4.20;2.38;;;;;;;21.76;60.43;100967.59;4979907;28;20058;-81
2021/08/10 08:24:26;;;;;;;6.63;2.60;;;;;;;21.50;61.58;100971.03;5003505;28;20089;-79
2021/08/10 08:26:53;;;;;;;7.03;2.90;;;;;;;21.12;63.22;100975.63;5022564;28;20056;-81
2021/08/10 08:29:20;;;;;;;6.90;2.75;;;;;;;21.30;62.52;100978.34;4984790;28;20144;-81
2021/08/10 08:31:48;;;;;;;5.43;2.38;;;;;;;21.38;62.78;100975.75;5009840;28;20084;-80
2021/08/10 08:34:22;;;;;;;5.88;3.03;;;;;;;21.19;63.44;100959.78;4994081;28;20077;-81
2021/08/10 08:36:49;;;;;;;5.90;2.67;;;;;;;21.06;63.66;100965.50;5003417;28;20049;-79
2021/08/10 08:39:16;;;;;;;4.35;2.80;;;;;;;21.03;64.04;100970.31;5003107;28;20069;-79
2021/08/10 08:41:45;;;;;;;5.72;2.72;;;;;;;21.14;63.61;100970.13;5000419;28;20056;-79
2021/08/10 08:44:16;;;;;;;6.72;2.78;;;;;;;21.43;61.89;100975.28;4998038;28;20065;-75
2021/08/10 08:46:52;;;;;;;6.93;2.75;;;;;;;21.66;61.25;100973.00;4994820;28;20050;-76
2021/08/10 08:49:23;;;;;;;12.18;3.00;;;;;;;21.92;61.19;100973.91;5004439;28;20346;-77
2021/08/10 08:51:50;;;;;;;4.47;2.47;;;;;;;21.91;59.33;100976.75;5015447;28;20250;-78
2021/08/10 08:54:23;;;;;;;7.28;2.63;;;;;;;22.27;59.01;100964.13;4983577;28;20060;-77
2021/08/10 08:56:50;;;;;;;7.55;2.50;;;;;;;22.29;58.61;100951.41;4997166;28;20053;-80
2021/08/10 08:59:22;;;;;;;7.35;2.50;;;;;;;22.63;56.71;100945.22;4999131;28;20041;-77
2021/08/10 09:01:50;;;;;;;5.55;2.60;;;;;;;22.95;55.16;100947.19;4989874;28;20045;-77
2021/08/10 09:04:18;;;;;;;8.80;3.40;;;;;;;23.05;54.26;100949.75;5021100;28;20153;-77
2021/08/10 09:06:47;;;;;;;9.50;2.40;;;;;;;23.18;54.74;100950.94;4979613;28;20089;-77
2021/08/10 09:09:40;;;;;;;11.88;3.20;;;;;;;22.83;55.83;100946.66;5016673;28;20536;-77
2021/08/10 09:12:09;;;;;;;8.90;3.17;;;;;;;23.01;55.01;100951.94;5011986;28;20117;-79
2021/08/10 09:14:47;;;;;;;9.85;2.97;;;;;;;23.02;54.37;100950.94;5009382;28;20069;-80
2021/08/10 09:17:17;;;;;;;9.77;3.20;;;;;;;22.91;54.89;100952.06;5004645;28;20037;-81
2021/08/10 09:19:53;;;;;;;5.38;2.25;;;;;;;22.94;54.51;100957.09;5013242;28;20053;-82
2021/08/10 09:22:32;;;;;;;9.75;2.72;;;;;;;22.78;55.22;100953.47;5019098;28;20056;-80
2021/08/10 09:25:12;;;;;;;10.38;2.40;;;;;;;22.55;56.21;100954.06;4985467;28;20056;-81
2021/08/10 09:27:40;;;;;;;6.85;2.45;;;;;;;22.85;55.89;100941.94;4984835;28;20294;-81
2021/08/10 09:30:10;;;;;;;9.02;3.10;;;;;;;22.78;56.31;100940.91;5012384;28;20115;-84
2021/08/10 09:32:59;;;;;;;8.07;2.67;;;;;;;22.90;55.28;100952.22;4991689;28;20050;-82
2021/08/10 09:35:37;;;;;;;5.90;2.70;;;;;;;23.43;53.78;100941.09;5002928;28;20103;-83
2021/08/10 09:38:11;;;;;;;6.57;2.70;;;;;;;23.97;52.96;100938.78;5007799;28;20080;-83
2021/08/10 09:40:40;;;;;;;6.75;2.40;;;;;;;24.33;50.32;100933.00;5023163;28;20053;-81
2021/08/10 09:43:26;;;;;;;8.77;3.10;;;;;;;24.83;49.23;100936.38;5006335;28;20101;-81
2021/08/10 09:46:25;;;;;;;10.40;2.97;;;;;;;25.37;47.74;100931.03;5023195;23;20790;-68
2021/08/10 09:48:55;;;;;;;8.13;2.63;;;;;;;25.39;47.87;100926.28;4978739;28;20507;-68
2021/08/10 09:51:25;;;;;;;7.20;2.90;;;;;;;25.18;48.40;100938.56;5002630;28;20077;-71
2021/08/10 09:54:00;;;;;;;12.35;2.67;;;;;;;25.45;47.74;100931.81;5001508;28;20134;-72
2021/08/10 09:56:49;;;;;;;9.15;2.80;;;;;;;25.09;48.51;100934.25;5003714;28;20136;-70
2021/08/10 09:59:21;;;;;;;9.65;3.08;;;;;;;24.63;49.06;100944.88;5010057;28;20061;-70
2021/08/10 10:01:51;;;;;;;6.53;2.22;;;;;;;25.44;47.64;100930.13;5013943;28;20129;-71
2021/08/10 10:04:21;;;;;;;7.07;2.42;;;;;;;25.20;48.50;100933.81;5011122;28;20496;-72
2021/08/10 10:06:51;;;;;;;7.80;2.63;;;;;;;24.40;51.10;100935.84;5012058;28;20135;-71
2021/08/10 10:09:19;;;;;;;7.57;2.40;;;;;;;24.94;49.42;100934.09;4997426;28;20128;-70
2021/08/10 10:11:47;;;;;;;5.82;2.20;;;;;;;24.94;48.46;100933.25;5029411;28;20100;-68
2021/08/10 10:14:21;;;;;;;7.13;2.47;;;;;;;25.00;49.29;100929.88;5010609;28;20405;-70
2021/08/10 10:16:51;;;;;;;6.57;2.60;;;;;;;25.30;48.60;100924.66;4987499;28;20042;-71
2021/08/10 10:19:20;;;;;;;7.78;2.45;;;;;;;25.71;47.33;100925.16;4979076;28;20149;-69
2021/08/10 10:21:57;;;;;;;8.20;2.75;;;;;;;26.08;45.91;100918.97;5011715;28;20064;-71
2021/08/10 10:24:26;;;;;;;6.10;2.20;;;;;;;26.12;46.41;100922.97;5027506;28;20077;-71
2021/08/10 10:27:00;;;;;;;5.03;2.38;;;;;;;25.45;47.50;100920.19;5010539;28;20053;-71
2021/08/10 10:29:28;;;;;;;7.50;2.85;;;;;;;25.29;48.37;100914.91;5009836;28;20053;-69
2021/08/10 10:31:56;;;;;;;4.72;2.40;;;;;;;24.94;49.06;100917.09;5006653;28;20152;-69
2021/08/10 10:34:23;;;;;;;7.20;3.28;;;;;;;24.47;50.18;100918.00;5014800;28;20132;-70
2021/08/10 10:36:51;;;;;;;6.05;2.80;;;;;;;24.14;51.69;100918.09;4978428;28;20153;-71
2021/08/10 10:39:44;;;;;;;10.50;2.33;;;;;;;24.28;50.08;100913.00;4999650;28;20073;-71
2021/08/10 10:42:15;;;;;;;8.70;3.00;;;;;;;24.20;51.02;100911.16;4991745;28;20075;-72
2021/08/10 10:44:45;;;;;;;9.55;2.92;;;;;;;24.47;50.02;100910.78;5036870;28;20084;-70
2021/08/10 10:47:24;;;;;;;6.28;2.28;;;;;;;24.33;50.58;100910.63;5003045;28;20097;-70
2021/08/10 10:49:57;;;;;;;7.18;2.58;;;;;;;24.03;50.94;100909.53;5029968;28;20136;-69
2021/08/10 10:52:29;;;;;;;6.95;2.42;;;;;;;24.34;49.45;100912.31;5006196;28;20552;-70
2021/08/10 10:54:57;;;;;;;7.10;3.05;;;;;;;24.05;50.78;100902.97;5027824;28;20073;-71
2021/08/10 10:57:34;;;;;;;5.53;2.63;;;;;;;24.37;50.10;100902.06;4993172;28;20064;-71
2021/08/10 11:00:04;;;;;;;13.77;3.03;;;;;;;24.41;49.80;100895.34;5026849;28;20053;-72
2021/08/10 11:02:32;;;;;;;8.00;2.78;;;;;;;24.16;50.60;100899.06;5024983;28;20780;-70
2021/08/10 11:05:06;;;;;;;5.38;2.30;;;;;;;23.82;51.77;100894.78;5012797;28;20049;-70
2021/08/10 11:07:36;;;;;;;4.55;2.95;;;;;;;23.94;51.55;100892.56;5025609;28;21416;-71
2021/08/10 11:10:04;;;;;;;4.85;2.50;;;;;;;23.80;50.97;100891.41;5018242;28;20495;-70
2021/08/10 11:12:36;;;;;;;6.88;2.72;;;;;;;23.65;51.41;100891.25;5006877;28;20058;-70
2021/08/10 11:15:03;;;;;;;5.00;2.40;;;;;;;23.53;52.18;100899.78;5020709;28;20080;-69
2021/08/10 11:17:33;;;;;;;6.15;3.00;;;;;;;23.48;52.20;100909.19;5025980;28;20160;-71
2021/08/10 11:20:24;;;;;;;5.93;2.67;;;;;;;23.41;52.66;100918.91;4996439;28;20096;-71
2021/08/10 11:23:19;;;;;;;5.07;2.50;;;;;;;23.56;52.74;100911.06;5007764;28;20052;-71
2021/08/10 11:25:58;;;;;;;6.10;2.75;;;;;;;24.55;49.03;100903.69;5027381;28;20136;-72
2021/08/10 11:28:32;;;;;;;10.88;2.78;;;;;;;24.80;49.01;100894.47;4999268;28;20131;-70
2021/08/10 11:31:04;;;;;;;9.40;2.58;;;;;;;24.88;48.84;100889.03;5036135;28;20140;-71
2021/08/10 11:33:41;;;;;;;3.92;2.20;;;;;;;24.75;48.85;100889.59;4993829;28;20097;-72